Time;durP1;ratioP1;P1;durP2;ratioP2;P2;SDS_P1;SDS_P2;PMS_P1;PMS_P2;Temp;Humidity;BMP_temperature;BMP_pressure;BME280_temperature;BME280_humidity;BME280_pressure;Samples;Min_cycle;Max_cycle;Signal;HPM_P1;HPM_P2
2023/10/26 00:00:16;;;;;;;1.93;1.40;;;;;;;17.15;54.62;96995.53;6975549;28;20427;-82
2023/10/26 00:03:38;;;;;;;1.40;1.30;;;;;;;17.10;54.25;96974.59;6976217;28;20225;-82
2023/10/26 00:07:00;;;;;;;1.20;1.20;;;;;;;17.25;54.17;96981.75;6968786;28;20317;-82
2023/10/26 00:10:23;;;;;;;1.40;1.30;;;;;;;16.94;55.05;96978.63;6974320;28;20211;-82
2023/10/26 00:13:45;;;;;;;1.40;1.20;;;;;;;17.27;54.03;96977.66;6976595;28;20741;-82
2023/10/26 00:17:06;;;;;;;3.60;1.33;;;;;;;17.14;55.27;96980.25;6977383;28;20247;-82
2023/10/26 00:20:27;;;;;;;1.57;1.47;;;;;;;17.10;55.11;96996.38;6977002;28;20281;-82
2023/10/26 00:23:49;;;;;;;1.40;1.30;;;;;;;17.19;54.48;96988.38;6976989;28;20334;-82
2023/10/26 00:27:12;;;;;;;2.03;1.50;;;;;;;16.72;55.66;96994.63;6975502;28;20753;-82
2023/10/26 00:30:33;;;;;;;1.60;1.50;;;;;;;16.87;55.36;96996.38;6977542;28;20346;-82
2023/10/26 00:33:55;;;;;;;1.93;1.73;;;;;;;17.16;54.78;96999.88;6977520;28;20210;-82
2023/10/26 00:37:16;;;;;;;1.47;1.37;;;;;;;16.98;54.96;97006.06;6977512;28;20281;-82
2023/10/26 00:40:39;;;;;;;3.70;1.50;;;;;;;16.98;55.14;96997.91;6975775;28;20270;-82
2023/10/26 00:44:01;;;;;;;2.20;1.40;;;;;;;17.19;54.96;96997.38;6966211;28;20254;-82
2023/10/26 00:47:24;;;;;;;2.20;1.40;;;;;;;17.16;54.87;97005.31;6976938;28;20310;-82
2023/10/26 00:50:46;;;;;;;2.20;2.00;;;;;;;17.05;55.35;96995.63;6977423;28;20204;-82
2023/10/26 00:54:08;;;;;;;3.00;1.63;;;;;;;16.98;55.53;96987.81;6976152;28;20285;-82
2023/10/26 00:57:30;;;;;;;2.60;2.40;;;;;;;16.80;56.17;96995.91;6974447;28;20235;-82
2023/10/26 01:00:53;;;;;;;3.40;1.80;;;;;;;16.99;55.67;96997.59;6964988;28;20283;-82
2023/10/26 01:04:15;;;;;;;2.43;1.37;;;;;;;16.62;56.76;96993.91;6959776;28;20644;-82
2023/10/26 01:07:39;;;;;;;1.30;1.30;;;;;;;16.51;57.05;96978.78;6976358;28;20596;-82
2023/10/26 01:11:00;;;;;;;2.10;1.43;;;;;;;16.79;56.26;96986.09;6975357;28;20212;-82
2023/10/26 01:14:23;;;;;;;1.53;1.43;;;;;;;16.74;56.04;96989.69;6975692;28;20682;-82
2023/10/26 01:17:46;;;;;;;2.37;1.50;;;;;;;16.43;56.40;96984.84;6942929;28;20234;-82
2023/10/26 01:21:10;;;;;;;2.37;1.50;;;;;;;16.45;56.58;96998.97;6958104;28;20345;-82
2023/10/26 01:24:33;;;;;;;3.43;1.50;;;;;;;16.64;56.37;96997.16;6951782;28;20266;-81
2023/10/26 01:27:54;;;;;;;2.80;1.40;;;;;;;16.60;56.40;96999.66;6944912;28;20228;-81
2023/10/26 01:31:16;;;;;;;1.50;1.40;;;;;;;16.42;56.79;96994.91;6953150;28;20516;-82
2023/10/26 01:34:38;;;;;;;2.70;1.47;;;;;;;16.45;56.59;97007.94;6970950;28;20202;-82
2023/10/26 01:37:59;;;;;;;3.30;1.57;;;;;;;16.09;57.79;97000.31;6961704;28;20218;-82
2023/10/26 01:41:22;;;;;;;2.33;1.60;;;;;;;16.27;57.53;97003.16;6962817;28;20306;-82
2023/10/26 01:44:43;;;;;;;1.63;1.53;;;;;;;16.21;57.78;96992.63;6970074;28;20248;-82
2023/10/26 01:48:06;;;;;;;2.80;1.47;;;;;;;16.08;57.98;96990.53;6972961;28;20365;-82
2023/10/26 01:51:27;;;;;;;3.00;1.47;;;;;;;15.71;57.64;96906.03;6972247;28;20349;-82
2023/10/26 01:54:49;;;;;;;2.30;1.57;;;;;;;15.88;58.33;96993.41;6958426;28;20306;-82
2023/10/26 01:58:12;;;;;;;1.87;1.40;;;;;;;15.72;58.71;96978.28;6972370;28;20234;-83
2023/10/26 02:01:34;;;;;;;1.57;1.30;;;;;;;15.76;58.65;96987.53;6968567;28;20231;-82
2023/10/26 02:04:55;;;;;;;1.43;1.30;;;;;;;15.84;58.45;96989.63;6971573;28;20309;-83
2023/10/26 02:08:17;;;;;;;2.60;1.40;;;;;;;15.30;59.31;96970.66;6970149;28;20728;-83
2023/10/26 02:11:38;;;;;;;2.23;1.73;;;;;;;15.19;59.97;96984.53;6971424;28;20287;-82
2023/10/26 02:15:01;;;;;;;1.77;1.50;;;;;;;15.16;60.46;96993.25;6969228;28;20806;-82
2023/10/26 02:18:22;;;;;;;2.40;1.60;;;;;;;15.16;60.19;96995.97;6955397;28;20279;-83
2023/10/26 02:21:44;;;;;;;2.53;1.30;;;;;;;15.39;59.48;97004.28;6953499;28;20742;-82
2023/10/26 02:25:06;;;;;;;1.60;1.50;;;;;;;14.58;61.69;96980.41;6963381;28;20317;-82
2023/10/26 02:28:27;;;;;;;1.40;1.30;;;;;;;14.78;61.10;96978.44;6976560;28;20698;-83
2023/10/26 02:31:50;;;;;;;2.63;1.53;;;;;;;14.68;61.48;96981.19;6977329;28;20203;-83
2023/10/26 02:35:12;;;;;;;2.87;1.50;;;;;;;14.71;61.69;97007.75;6977332;28;20355;-83
2023/10/26 02:38:33;;;;;;;1.80;1.40;;;;;;;14.61;61.68;96977.94;6975323;28;20314;-83
2023/10/26 02:41:55;;;;;;;1.70;1.40;;;;;;;14.83;61.14;97004.75;6977321;28;20661;-83
2023/10/26 02:45:16;;;;;;;3.23;1.63;;;;;;;14.50;62.12;96984.47;6976813;28;20285;-83
2023/10/26 02:48:39;;;;;;;3.40;1.40;;;;;;;14.36;61.36;96931.06;6977342;28;20307;-83
2023/10/26 02:52:01;;;;;;;2.17;1.50;;;;;;;14.83;61.56;96999.31;6961993;28;20758;-83
2023/10/26 02:55:22;;;;;;;1.60;1.50;;;;;;;14.85;61.37;97007.97;6971227;28;20341;-83
2023/10/26 02:58:45;;;;;;;3.83;1.67;;;;;;;14.64;61.34;96976.59;6975372;28;20309;-83
2023/10/26 03:02:06;;;;;;;1.77;1.67;;;;;;;14.85;60.86;97002.56;6976243;28;20259;-82
2023/10/26 03:05:29;;;;;;;3.07;1.90;;;;;;;14.72;60.91;96976.84;6977392;28;20283;-83
2023/10/26 03:08:51;;;;;;;1.70;1.60;;;;;;;14.74;61.14;97000.97;6977390;28;20226;-83
2023/10/26 03:12:12;;;;;;;1.80;1.70;;;;;;;14.77;60.88;96992.28;6974502;28;20291;-83
2023/10/26 03:15:34;;;;;;;2.17;1.87;;;;;;;14.79;60.77;96999.06;6975654;28;20198;-83
2023/10/26 03:18:55;;;;;;;1.73;1.63;;;;;;;14.67;60.69;96989.56;6976559;28;20250;-83
2023/10/26 03:22:18;;;;;;;2.80;1.70;;;;;;;14.59;60.84;96992.84;6976574;28;20240;-82
2023/10/26 03:25:40;;;;;;;1.70;1.60;;;;;;;14.43;61.44;97012.94;6976401;28;20232;-83
2023/10/26 03:29:02;;;;;;;2.87;1.73;;;;;;;14.50;61.30;97008.03;6975400;28;20317;-83
2023/10/26 03:32:24;;;;;;;1.83;1.73;;;;;;;14.62;60.95;96986.91;6975291;28;20207;-83
2023/10/26 03:35:45;;;;;;;1.40;1.40;;;;;;;14.84;60.17;96985.47;6976009;28;20262;-84
2023/10/26 03:39:08;;;;;;;2.20;1.60;;;;;;;14.81;60.40;96985.22;6978292;28;20389;-83
2023/10/26 03:42:29;;;;;;;2.10;1.90;;;;;;;15.03;59.56;96980.25;6976433;28;20293;-84
2023/10/26 03:45:51;;;;;;;2.60;1.90;;;;;;;15.14;59.40;96984.53;6974058;28;20318;-83
2023/10/26 03:49:12;;;;;;;1.87;1.77;;;;;;;15.08;58.51;96959.34;6974507;28;20301;-84
2023/10/26 03:52:34;;;;;;;3.90;2.33;;;;;;;15.22;58.14;96963.06;6975518;28;20235;-83
2023/10/26 03:55:57;;;;;;;4.13;2.80;;;;;;;15.30;58.37;96986.09;6974651;28;20196;-84
2023/10/26 03:59:19;;;;;;;2.53;2.33;;;;;;;15.21;58.00;96991.31;6975350;28;20319;-83
2023/10/26 04:02:40;;;;;;;4.10;2.37;;;;;;;15.22;58.16;96986.69;6971011;28;20724;-83
2023/10/26 04:06:02;;;;;;;2.90;2.00;;;;;;;15.37;57.11;96992.91;6971312;28;20226;-84
2023/10/26 04:09:24;;;;;;;2.00;1.63;;;;;;;15.29;57.43;96979.84;6974264;28;20198;-83
2023/10/26 04:12:47;;;;;;;1.70;1.53;;;;;;;15.36;57.02;96983.13;6974874;28;20596;-83
2023/10/26 04:16:08;;;;;;;3.50;1.70;;;;;;;15.33;56.92;96969.31;6975982;28;20285;-83
2023/10/26 04:19:33;;;;;;;2.73;1.50;;;;;;;15.34;56.46;96968.22;6974537;28;20211;-83
2023/10/26 04:22:55;;;;;;;1.73;1.63;;;;;;;15.32;56.57;96951.34;6968767;28;20206;-83
2023/10/26 04:26:16;;;;;;;2.27;1.70;;;;;;;15.17;56.62;96954.94;6974915;28;20337;-83
2023/10/26 04:29:39;;;;;;;2.07;1.77;;;;;;;14.63;58.00;96945.13;6976269;28;20289;-83
2023/10/26 04:33:00;;;;;;;2.57;1.60;;;;;;;14.47;58.40;96921.84;6974451;28;20272;-83
2023/10/26 04:36:22;;;;;;;2.70;2.17;;;;;;;14.88;58.44;96964.03;6971352;28;20321;-83
2023/10/26 04:39:44;;;;;;;1.97;1.77;;;;;;;14.88;57.95;96969.47;6975159;28;20263;-84
2023/10/26 04:43:05;;;;;;;3.00;1.60;;;;;;;14.79;58.14;96936.66;6973564;28;20209;-85
2023/10/26 04:46:28;;;;;;;1.90;1.80;;;;;;;14.92;57.87;96960.47;6978578;28;20677;-83
2023/10/26 04:49:50;;;;;;;3.83;1.87;;;;;;;14.80;57.76;96948.34;6976434;28;20206;-84
2023/10/26 04:53:12;;;;;;;3.67;1.90;;;;;;;14.86;57.98;96971.66;6959784;28;20763;-84
2023/10/26 04:56:33;;;;;;;3.90;1.80;;;;;;;14.71;58.44;96961.66;6965477;28;20306;-84
2023/10/26 04:59:55;;;;;;;2.20;1.70;;;;;;;14.65;58.30;96957.31;6964839;28;20202;-84
2023/10/26 05:03:18;;;;;;;1.90;1.80;;;;;;;14.74;58.05;96965.72;6980160;28;20316;-82
2023/10/26 05:06:40;;;;;;;2.33;2.07;;;;;;;14.92;57.84;96951.53;6953760;28;20226;-83
2023/10/26 05:10:01;;;;;;;1.90;1.80;;;;;;;15.02;57.08;96937.91;6969837;28;20349;-83
2023/10/26 05:13:24;;;;;;;2.93;2.23;;;;;;;14.61;58.46;96955.41;6946070;28;20214;-83
2023/10/26 05:16:45;;;;;;;4.63;1.97;;;;;;;14.71;58.46;96929.09;6971617;28;20263;-83
2023/10/26 05:20:09;;;;;;;6.67;2.30;;;;;;;15.06;57.09;96933.56;6970100;28;20274;-81
2023/10/26 05:23:31;;;;;;;2.20;2.00;;;;;;;14.90;57.23;96943.69;6948271;28;20229;-83
2023/10/26 05:26:52;;;;;;;2.63;1.93;;;;;;;14.94;57.35;96950.19;6969066;28;20316;-83
2023/10/26 05:30:14;;;;;;;4.07;2.00;;;;;;;13.53;60.73;96939.75;6969592;28;20680;-83
2023/10/26 05:33:35;;;;;;;2.70;2.50;;;;;;;13.88;60.89;96943.31;6972324;28;20210;-83
2023/10/26 05:36:58;;;;;;;2.10;1.93;;;;;;;14.44;59.77;96920.50;6970931;28;20719;-83
2023/10/26 05:40:20;;;;;;;4.43;1.93;;;;;;;14.55;58.88;96932.13;6973172;28;20202;-84
2023/10/26 05:43:41;;;;;;;2.63;2.40;;;;;;;14.03;60.07;96937.03;6972829;28;20730;-83
2023/10/26 05:47:03;;;;;;;3.20;2.70;;;;;;;14.04;60.09;96928.66;6972902;28;20819;-83
2023/10/26 05:50:24;;;;;;;2.50;2.03;;;;;;;13.91;61.04;96936.50;6972481;28;20206;-80
2023/10/26 05:53:47;;;;;;;2.43;2.23;;;;;;;14.43;59.40;96912.63;6959164;28;20222;-81
2023/10/26 05:57:09;;;;;;;3.00;2.07;;;;;;;14.50;59.59;96916.69;6975183;28;20295;-81
2023/10/26 06:00:31;;;;;;;2.17;1.97;;;;;;;14.58;58.77;96907.97;6977101;28;20274;-81
2023/10/26 06:03:53;;;;;;;4.03;1.80;;;;;;;14.54;59.34;96916.94;6976427;28;20198;-83
2023/10/26 06:07:14;;;;;;;3.27;2.07;;;;;;;14.34;60.19;96906.94;6969329;28;20619;-82
2023/10/26 06:10:38;;;;;;;4.37;2.50;;;;;;;14.44;60.16;96882.53;6969691;28;20203;-83
2023/10/26 06:14:00;;;;;;;4.37;2.43;;;;;;;14.54;59.45;96901.50;6969932;28;20343;-84
2023/10/26 06:17:21;;;;;;;3.80;1.97;;;;;;;14.57;59.94;96914.47;6978580;28;20235;-83
2023/10/26 06:20:43;;;;;;;3.27;2.07;;;;;;;14.75;59.83;96918.50;6973671;28;20653;-83
2023/10/26 06:24:05;;;;;;;3.37;2.27;;;;;;;14.86;59.32;96896.47;6984191;28;20260;-84
2023/10/26 06:27:28;;;;;;;2.40;2.17;;;;;;;15.09;58.67;96916.72;6980027;28;20317;-83
2023/10/26 06:30:50;;;;;;;2.33;2.00;;;;;;;15.30;58.42;96916.34;6982771;28;20208;-83
2023/10/26 06:34:11;;;;;;;2.50;1.97;;;;;;;15.39;58.43;96908.44;6979668;28;20256;-84
2023/10/26 06:37:33;;;;;;;2.23;1.93;;;;;;;15.19;58.66;96919.38;6982320;28;20233;-83
2023/10/26 06:40:55;;;;;;;2.70;2.50;;;;;;;14.72;60.42;96929.91;6972076;28;20263;-83
2023/10/26 06:44:17;;;;;;;3.00;2.37;;;;;;;14.40;61.85;96932.97;6976967;28;20230;-84
2023/10/26 06:47:39;;;;;;;5.43;2.10;;;;;;;15.13;60.56;96918.59;6979815;28;20237;-83
2023/10/26 06:51:03;;;;;;;3.23;2.10;;;;;;;15.39;59.99;96925.53;6980210;28;20214;-84
2023/10/26 06:54:24;;;;;;;3.63;1.97;;;;;;;15.17;60.72;96908.78;6978553;28;20269;-83
2023/10/26 06:57:46;;;;;;;2.17;2.00;;;;;;;15.27;60.70;96911.47;6975339;28;20291;-83
2023/10/26 07:01:09;;;;;;;4.43;1.90;;;;;;;15.37;60.51;96921.47;6991144;28;20202;-83
2023/10/26 07:04:30;;;;;;;2.43;1.80;;;;;;;15.77;59.77;96922.03;6977618;28;20309;-83
2023/10/26 07:07:52;;;;;;;1.73;1.57;;;;;;;15.94;59.08;96927.88;6974715;28;20324;-83
2023/10/26 07:11:13;;;;;;;2.83;1.90;;;;;;;15.89;59.11;96913.50;6977528;28;20695;-83
2023/10/26 07:14:36;;;;;;;3.60;1.80;;;;;;;16.11;58.28;96909.22;6976001;28;20569;-83
2023/10/26 07:17:59;;;;;;;3.53;1.73;;;;;;;16.06;57.55;96927.50;6970442;28;20681;-83
2023/10/26 07:21:21;;;;;;;2.00;1.80;;;;;;;15.87;57.92;96908.34;6976672;28;20293;-83
2023/10/26 07:24:42;;;;;;;3.10;1.87;;;;;;;15.56;58.47;96852.63;6970730;28;20231;-83
2023/10/26 07:28:04;;;;;;;2.43;2.10;;;;;;;15.86;59.34;96924.97;6973608;28;20757;-83
2023/10/26 07:31:25;;;;;;;4.67;2.30;;;;;;;15.75;59.45;96923.41;6967509;28;20731;-83
2023/10/26 07:34:48;;;;;;;2.37;2.20;;;;;;;15.72;59.48;96929.38;6965319;28;20289;-83
2023/10/26 07:38:10;;;;;;;2.20;2.00;;;;;;;15.87;59.83;96919.22;6967433;28;20226;-84
2023/10/26 07:41:31;;;;;;;2.60;1.80;;;;;;;15.77;60.01;96929.34;6973254;28;20293;-84
2023/10/26 07:44:53;;;;;;;2.50;1.80;;;;;;;16.20;59.09;96912.13;6962618;28;20383;-83
2023/10/26 07:48:15;;;;;;;3.00;1.90;;;;;;;16.50;58.06;96911.84;6975202;28;20708;-83
2023/10/26 07:51:38;;;;;;;2.97;2.03;;;;;;;16.72;57.38;96921.16;6973330;28;20200;-81
2023/10/26 07:55:00;;;;;;;2.43;1.70;;;;;;;16.22;58.34;96902.59;6973568;28;20297;-81
2023/10/26 07:58:21;;;;;;;3.43;2.37;;;;;;;16.63;57.93;96927.53;6973582;28;20269;-81
2023/10/26 08:01:43;;;;;;;3.70;2.00;;;;;;;16.63;58.13;96912.00;6973328;28;20213;-82
2023/10/26 08:05:05;;;;;;;2.10;1.90;;;;;;;16.42;59.01;96910.59;6961028;28;20224;-84
2023/10/26 08:08:28;;;;;;;2.43;1.87;;;;;;;15.98;60.23;96887.34;6971697;28;20561;-82
2023/10/26 08:11:50;;;;;;;5.27;2.23;;;;;;;16.70;58.88;96887.16;6963813;28;20271;-82
2023/10/26 08:15:11;;;;;;;4.47;2.10;;;;;;;16.92;57.76;96892.91;6968953;28;20294;-81
2023/10/26 08:18:33;;;;;;;2.23;1.90;;;;;;;17.24;57.40;96888.38;6971099;28;20772;-81
2023/10/26 08:21:55;;;;;;;3.50;2.60;;;;;;;17.12;57.28;96887.16;6970918;28;20299;-82
2023/10/26 08:25:18;;;;;;;1.90;1.80;;;;;;;17.43;56.45;96896.56;6967983;28;20323;-81
2023/10/26 08:28:40;;;;;;;2.27;2.00;;;;;;;16.99;58.12;96890.63;6964307;28;20753;-81
2023/10/26 08:32:03;;;;;;;2.43;2.20;;;;;;;17.25;57.58;96894.59;6966984;28;20711;-84
2023/10/26 08:35:25;;;;;;;5.03;2.27;;;;;;;17.40;57.38;96886.28;6968187;28;20226;-82
2023/10/26 08:38:46;;;;;;;2.37;2.00;;;;;;;17.49;56.57;96889.94;6966761;28;20302;-82
2023/10/26 08:42:09;;;;;;;1.97;1.70;;;;;;;17.57;57.54;96884.63;6965176;28;20242;-82
2023/10/26 08:45:31;;;;;;;2.50;1.90;;;;;;;17.55;56.93;96895.03;6964375;28;20288;-80
2023/10/26 08:48:55;;;;;;;2.10;1.90;;;;;;;17.75;56.80;96896.63;6969766;28;20216;-82
2023/10/26 08:52:17;;;;;;;3.20;1.90;;;;;;;17.25;57.69;96909.06;6970568;28;20346;-79
2023/10/26 08:55:39;;;;;;;3.73;2.93;;;;;;;17.53;58.40;96885.53;6970496;28;20584;-84
2023/10/26 08:59:03;;;;;;;2.00;1.80;;;;;;;17.73;57.74;96928.81;6967784;28;20269;-84
2023/10/26 09:02:25;;;;;;;2.33;2.10;;;;;;;18.09;56.43;96922.50;6960886;28;20209;-84
2023/10/26 09:05:53;;;;;;;1.73;1.63;;;;;;;17.55;57.35;96932.34;6942680;28;20371;-82
2023/10/26 09:09:15;;;;;;;2.83;1.90;;;;;;;18.07;56.22;96897.47;6947437;28;20220;-86
2023/10/26 09:12:37;;;;;;;3.63;1.90;;;;;;;18.27;56.29;96918.13;6969803;28;20269;-83
2023/10/26 09:16:00;;;;;;;2.00;1.80;;;;;;;18.47;56.00;96891.31;6952973;28;20258;-83
2023/10/26 09:19:21;;;;;;;3.80;1.80;;;;;;;18.54;56.22;96913.56;6961352;28;20202;-83
2023/10/26 09:22:43;;;;;;;2.80;1.90;;;;;;;18.66;56.12;96905.69;6968653;28;20227;-83
2023/10/26 09:26:07;;;;;;;5.63;1.67;;;;;;;18.86;55.81;96902.56;6966123;28;20712;-82
2023/10/26 09:29:38;;;;;;;1.53;1.43;;;;;;;18.69;57.06;96907.81;6964722;28;20674;-82
2023/10/26 09:33:03;;;;;;;1.80;1.70;;;;;;;18.67;57.56;96906.47;6957358;28;20214;-82
2023/10/26 09:36:25;;;;;;;2.23;1.83;;;;;;;18.44;57.69;96924.66;6971809;28;20572;-83
2023/10/26 09:39:48;;;;;;;1.70;1.60;;;;;;;18.21;58.58;96913.88;6975717;28;20208;-84
2023/10/26 09:43:10;;;;;;;2.20;1.70;;;;;;;18.06;58.92;96903.22;6972622;28;20208;-81
2023/10/26 09:46:32;;;;;;;3.10;1.90;;;;;;;18.35;59.39;96912.00;6969799;28;20314;-79
2023/10/26 09:49:55;;;;;;;2.23;1.77;;;;;;;18.55;58.60;96915.19;6970035;28;20302;-82
2023/10/26 09:53:18;;;;;;;1.80;1.70;;;;;;;18.33;58.14;96900.59;6959885;28;20551;-83
2023/10/26 09:56:42;;;;;;;2.77;1.63;;;;;;;17.98;59.62;96918.31;6971969;28;20722;-82
2023/10/26 10:00:10;;;;;;;3.33;3.03;;;;;;;17.73;60.75;96945.16;6974345;28;20689;-82
2023/10/26 10:03:44;;;;;;;3.33;2.20;;;;;;;18.02;60.11;96976.63;6959440;28;20201;-81
2023/10/26 10:07:07;;;;;;;3.80;2.23;;;;;;;17.96;60.60;96956.00;6972044;28;20364;-80
2023/10/26 10:10:28;;;;;;;3.30;2.27;;;;;;;17.52;61.76;96941.91;6969315;28;20666;-82
2023/10/26 10:13:50;;;;;;;2.67;2.33;;;;;;;16.37;65.49;96920.66;6972291;28;20286;-83
2023/10/26 10:17:11;;;;;;;3.53;2.17;;;;;;;16.90;64.70;96916.84;6970378;28;20341;-81
2023/10/26 10:20:34;;;;;;;2.20;1.80;;;;;;;17.21;63.02;96921.63;6981454;28;20245;-81
2023/10/26 10:23:57;;;;;;;2.70;2.00;;;;;;;17.02;64.11;96903.63;6974223;28;20627;-82
2023/10/26 10:27:19;;;;;;;2.80;2.60;;;;;;;15.96;66.66;96865.88;6974190;28;20340;-82
2023/10/26 10:30:55;;;;;;;3.30;2.13;;;;;;;17.15;63.53;96898.28;6972338;28;20203;-82
2023/10/26 10:34:19;;;;;;;2.33;2.13;;;;;;;17.08;64.34;96883.41;6963743;28;21266;-84
2023/10/26 10:38:20;;;;;;;3.60;2.17;;;;;;;17.52;63.53;96913.88;6948963;28;20383;-81
2023/10/26 10:41:43;;;;;;;2.00;1.90;;;;;;;17.51;63.63;96929.41;6957841;28;20292;-82
2023/10/26 10:45:06;;;;;;;2.47;2.27;;;;;;;17.32;63.68;96882.25;6974556;28;20203;-81
2023/10/26 10:48:27;;;;;;;3.93;2.80;;;;;;;16.94;66.00;96920.63;6975655;28;20369;-80
2023/10/26 10:51:49;;;;;;;5.00;2.90;;;;;;;16.69;66.96;96913.56;6961909;28;20290;-81
2023/10/26 10:55:10;;;;;;;3.17;2.47;;;;;;;17.43;64.66;96926.53;6973400;28;20763;-82
2023/10/26 10:58:38;;;;;;;3.57;3.13;;;;;;;17.39;64.38;96892.81;6963321;28;20235;-81
2023/10/26 11:02:08;;;;;;;2.50;2.30;;;;;;;17.31;64.26;96913.31;6973773;28;20287;-81
2023/10/26 11:05:37;;;;;;;2.43;2.23;;;;;;;17.45;65.50;96900.63;6969666;28;20223;-81
2023/10/26 11:08:59;;;;;;;3.00;2.10;;;;;;;18.07;64.42;96899.38;6969976;28;20342;-81
2023/10/26 11:12:21;;;;;;;4.13;2.30;;;;;;;18.29;62.99;96883.97;6953881;28;20712;-82
2023/10/26 11:15:44;;;;;;;3.13;2.10;;;;;;;18.54;61.91;96907.28;6961579;28;20677;-81
2023/10/26 11:19:05;;;;;;;2.07;1.87;;;;;;;18.24;62.71;96881.34;6958403;28;20718;-81
2023/10/26 11:22:27;;;;;;;2.17;2.07;;;;;;;18.31;62.41;96902.75;6971316;28;20216;-81
2023/10/26 11:25:49;;;;;;;2.40;2.20;;;;;;;18.12;62.88;96905.56;6973217;28;20216;-81
2023/10/26 11:29:17;;;;;;;3.33;3.07;;;;;;;18.08;63.27;96901.81;6967568;28;20373;-81
2023/10/26 11:32:40;;;;;;;4.17;3.40;;;;;;;18.31;63.18;96891.84;6964019;28;20233;-81
2023/10/26 11:36:02;;;;;;;3.40;2.57;;;;;;;17.87;63.80;96897.78;6972309;28;20286;-81
2023/10/26 11:39:24;;;;;;;2.03;1.83;;;;;;;18.05;64.32;96898.88;6972611;28;20202;-82
2023/10/26 11:42:46;;;;;;;2.53;2.33;;;;;;;18.45;63.49;96893.53;6972781;28;20295;-81
2023/10/26 11:46:08;;;;;;;2.33;2.13;;;;;;;18.15;63.38;96890.50;6974921;28;20315;-82
2023/10/26 11:49:41;;;;;;;4.07;2.23;;;;;;;18.04;64.06;96903.50;6963871;28;20280;-81
2023/10/26 11:53:04;;;;;;;2.17;2.07;;;;;;;18.39;63.05;96916.56;6965633;28;20212;-81
2023/10/26 11:56:26;;;;;;;2.20;2.10;;;;;;;17.72;63.73;96835.34;6969918;28;20275;-82
2023/10/26 11:59:47;;;;;;;2.47;2.23;;;;;;;18.61;63.10;96911.25;6975894;28;20297;-81
2023/10/26 12:03:09;;;;;;;2.10;2.00;;;;;;;18.48;63.17;96906.59;6973469;28;20340;-83
2023/10/26 12:06:32;;;;;;;1.80;1.70;;;;;;;18.72;61.61;96849.88;6966952;28;20237;-84
2023/10/26 12:09:54;;;;;;;1.87;1.77;;;;;;;18.67;60.85;96862.81;6965394;28;20331;-82
2023/10/26 12:13:15;;;;;;;1.83;1.73;;;;;;;18.40;61.29;96857.34;6968677;28;20270;-82
2023/10/26 12:16:37;;;;;;;2.10;2.00;;;;;;;18.43;61.44;96843.91;6971047;28;20260;-83
2023/10/26 12:19:58;;;;;;;1.60;1.50;;;;;;;18.34;63.63;96840.25;6964166;28;20204;-82
2023/10/26 12:23:21;;;;;;;1.70;1.60;;;;;;;19.46;60.76;96843.91;6970356;28;20587;-82
2023/10/26 12:26:43;;;;;;;1.60;1.50;;;;;;;19.95;59.11;96835.59;6962784;28;20271;-83
2023/10/26 12:30:06;;;;;;;1.50;1.50;;;;;;;20.03;58.46;96834.00;6970606;28;20280;-82
2023/10/26 12:33:28;;;;;;;1.70;1.60;;;;;;;20.16;57.75;96839.44;6960749;28;20245;-82
2023/10/26 12:36:50;;;;;;;2.10;1.80;;;;;;;20.28;58.59;96811.50;6973173;28;20224;-82
2023/10/26 12:40:13;;;;;;;3.97;3.57;;;;;;;21.08;56.08;96814.69;6969027;28;20576;-80
2023/10/26 12:43:34;;;;;;;3.40;2.70;;;;;;;20.94;56.01;96787.41;6978910;28;20233;-83
2023/10/26 12:46:57;;;;;;;1.90;1.70;;;;;;;21.20;55.34;96815.69;6975596;28;20230;-83
2023/10/26 12:50:18;;;;;;;1.37;1.37;;;;;;;20.56;55.23;96783.59;6967177;28;20271;-82
2023/10/26 12:53:40;;;;;;;1.90;1.80;;;;;;;19.31;59.06;96759.56;6954236;28;20203;-82
2023/10/26 12:57:03;;;;;;;1.90;1.70;;;;;;;20.25;58.02;96768.34;6963961;28;20276;-82
2023/10/26 13:00:24;;;;;;;1.70;1.60;;;;;;;20.38;57.70;96784.66;6971385;28;20271;-82
2023/10/26 13:03:46;;;;;;;2.53;1.70;;;;;;;20.96;56.90;96779.72;6963100;28;20234;-82
2023/10/26 13:07:07;;;;;;;2.13;2.03;;;;;;;20.86;56.34;96788.19;6973601;28;20234;-83
2023/10/26 13:10:31;;;;;;;2.53;1.90;;;;;;;21.51;54.90;96792.50;6962084;28;20263;-82
2023/10/26 13:13:53;;;;;;;1.90;1.80;;;;;;;21.22;55.22;96733.16;6973421;28;20665;-81
2023/10/26 13:17:15;;;;;;;2.23;2.07;;;;;;;21.48;54.96;96793.13;6970302;28;20663;-82
2023/10/26 13:20:36;;;;;;;2.37;1.40;;;;;;;21.71;53.33;96785.56;6963890;28;20293;-82
2023/10/26 13:23:58;;;;;;;1.47;1.30;;;;;;;21.92;52.71;96773.59;6963913;28;20304;-81
2023/10/26 13:27:19;;;;;;;1.67;1.57;;;;;;;21.33;53.25;96719.59;6968414;28;20448;-82
2023/10/26 13:30:42;;;;;;;2.17;1.60;;;;;;;21.86;53.70;96776.81;6974071;28;20264;-82
2023/10/26 13:34:07;;;;;;;1.27;1.20;;;;;;;21.31;54.06;96716.34;6971262;28;20216;-82
2023/10/26 13:37:28;;;;;;;1.10;1.10;;;;;;;21.51;54.89;96761.50;6963760;28;20224;-81
2023/10/26 13:40:50;;;;;;;1.43;1.30;;;;;;;21.13;55.79;96755.06;6969791;28;20224;-82
2023/10/26 13:44:11;;;;;;;1.40;1.30;;;;;;;21.17;55.37;96756.84;6968749;28;20304;-83
2023/10/26 13:47:34;;;;;;;1.40;1.30;;;;;;;20.42;57.32;96746.53;6972289;28;20319;-82
2023/10/26 13:50:56;;;;;;;2.97;1.50;;;;;;;19.55;60.42;96748.28;6966213;28;20202;-81
2023/10/26 13:54:17;;;;;;;1.90;1.70;;;;;;;19.69;60.04;96747.09;6973320;28;20217;-81
2023/10/26 13:57:39;;;;;;;1.57;1.47;;;;;;;19.61;60.00;96749.78;6971483;28;20250;-82
2023/10/26 14:01:00;;;;;;;1.70;1.60;;;;;;;19.63;60.92;96740.16;6970630;28;20241;-81
2023/10/26 14:04:23;;;;;;;1.80;1.70;;;;;;;19.93;59.39;96701.06;6962917;28;20206;-82
2023/10/26 14:07:46;;;;;;;2.07;1.63;;;;;;;20.62;57.51;96734.97;6967774;28;20244;-81
2023/10/26 14:11:08;;;;;;;1.90;1.80;;;;;;;20.63;58.27;96736.59;6959370;28;20251;-82
2023/10/26 14:14:29;;;;;;;2.33;1.80;;;;;;;20.69;58.10;96729.84;6973285;28;20353;-82
2023/10/26 14:17:51;;;;;;;2.20;2.00;;;;;;;20.23;59.28;96700.25;6972342;28;20211;-82
2023/10/26 14:21:14;;;;;;;4.67;2.20;;;;;;;20.22;59.06;96684.16;6963430;28;20295;-82
2023/10/26 14:24:35;;;;;;;4.33;2.43;;;;;;;20.15;59.84;96719.38;6975588;28;20220;-83
2023/10/26 14:27:57;;;;;;;2.90;2.37;;;;;;;19.64;61.06;96719.88;6978526;28;20308;-82
2023/10/26 14:31:19;;;;;;;4.93;2.90;;;;;;;19.80;60.73;96723.84;6978870;28;20930;-83
2023/10/26 14:34:40;;;;;;;3.37;2.37;;;;;;;19.83;61.00;96714.22;6970476;28;20290;-82
2023/10/26 14:38:03;;;;;;;3.63;2.63;;;;;;;19.87;60.83;96705.06;6964149;28;20256;-82
2023/10/26 14:41:25;;;;;;;3.67;2.53;;;;;;;19.90;60.75;96714.56;6966301;28;20203;-83
2023/10/26 14:44:47;;;;;;;3.33;2.60;;;;;;;19.99;60.14;96708.00;6946410;28;20688;-82
2023/10/26 14:48:09;;;;;;;3.67;2.60;;;;;;;20.06;59.83;96722.09;6963025;28;20233;-83
2023/10/26 14:51:31;;;;;;;3.90;2.40;;;;;;;19.89;59.76;96718.44;6957370;28;20232;-82
2023/10/26 14:54:54;;;;;;;3.67;2.37;;;;;;;19.97;59.85;96709.44;6967758;28;20198;-83
2023/10/26 14:58:15;;;;;;;2.60;2.13;;;;;;;19.82;59.96;96716.13;6967041;28;20290;-82
2023/10/26 15:01:37;;;;;;;4.00;2.30;;;;;;;19.71;59.52;96686.66;6954920;28;20274;-83
2023/10/26 15:04:58;;;;;;;8.57;2.80;;;;;;;19.59;60.56;96716.50;6950039;28;20199;-82
2023/10/26 15:08:20;;;;;;;5.00;2.57;;;;;;;19.79;60.04;96722.25;6970313;28;20232;-82
2023/10/26 15:11:42;;;;;;;6.53;2.80;;;;;;;19.90;60.06;96709.09;6966721;28;20286;-82
2023/10/26 15:15:05;;;;;;;2.67;2.30;;;;;;;19.50;60.47;96719.16;6963336;28;20217;-82
2023/10/26 15:18:27;;;;;;;12.07;7.70;;;;;;;19.44;60.47;96701.28;6958584;28;20282;-83
2023/10/26 15:21:48;;;;;;;3.90;3.13;;;;;;;19.68;59.78;96700.94;6957673;28;20202;-81
2023/10/26 15:25:10;;;;;;;4.07;3.20;;;;;;;19.74;59.97;96708.69;6952192;28;20308;-81
2023/10/26 15:28:33;;;;;;;4.60;2.73;;;;;;;19.74;59.57;96721.59;6973073;28;20371;-84
2023/10/26 15:31:55;;;;;;;5.97;3.13;;;;;;;19.53;59.55;96710.38;6963522;28;20288;-79
2023/10/26 15:35:16;;;;;;;5.47;2.20;;;;;;;19.31;59.11;96715.00;6962249;28;20309;-81
2023/10/26 15:38:40;;;;;;;5.60;2.90;;;;;;;19.07;59.30;96676.25;6946480;28;20284;-82
2023/10/26 15:42:02;;;;;;;4.70;2.50;;;;;;;19.49;57.81;96701.16;6963002;28;20201;-83
2023/10/26 15:45:25;;;;;;;6.27;2.23;;;;;;;19.03;56.88;96650.66;6970279;28;20293;-82
2023/10/26 15:48:46;;;;;;;7.80;3.87;;;;;;;19.61;56.30;96722.44;6962686;28;20317;-82
2023/10/26 15:52:08;;;;;;;4.03;2.00;;;;;;;19.45;56.35;96721.25;6970625;28;20245;-82